Amherst, OH

2:52 AM EDT on August 29, 2015 (GMT -0400)
Sheffield Township - south of Penfield Junction | | Change Station
CLOSE
Current Station
Personal Weather Station
Location: Lorain, OH
Elevation: 705 ft
Nearby Weather Stations

Elev 705 ft 41.42 °N, 82.16 °W | Updated 10 seconds ago

Clear
Clear
60.2 °F
Feels Like 60.2 °F
N
0.0
Wind Variable Wind from North
Gusts 0.0 mph

Today
High -- | Low -- °F
--% Chance of Precip.
Yesterday
High -- | Low -- °F
Precip. -- in
6:52 AM 8:07 PM
Full, 100% visible
Pressure 30.17 in
Visibility 8.0 miles
Clouds Clear
Dew Point 58 °F
Humidity 91%
Rainfall 0.00 in
Snow Depth Not available.
UV 0 out of 12
Pollen 9.60 out of 12
Air Quality Not available.
Flu Activity Not available.
METAR KLPR 290553Z AUTO 00000KT 8SM CLR 14/13 A3018 RMK AO2 SLP215 T01390128 10194 20133 50000 TSNO
Pressure 30.17 in
Visibility 8.0 miles
Clouds Clear
Dew Point 58 °F
Humidity 91%
Rainfall 0.00 in
Snow Depth Not available.
UV 0 out of 12
Pollen 9.60 out of 12
Air Quality Not available.
Flu Activity Not available.
METAR KLPR 290553Z AUTO 00000KT 8SM CLR 14/13 A3018 RMK AO2 SLP215 T01390128 10194 20133 50000 TSNO

10-Day Weather Forecast

×

Almanac

Astronomy

Aug. 29, 2015 Rise Set
Actual Time
Civil Twilight
Nautical Twilight
Astronomical Twilight
Moon
Length of Visible Light
Length of Day
Tomorrow will be .
, % of the Moon is Illuminated

Today's Extremes

State Highs State Lows

Community

WunderPhotos

Upload Photos

1,850,632 photos uploaded!

WunderBlogs® & News

Nearby

Air Quality

  Air Quality AQ Index Pollutant
Not available.

Snow Depth

Station Depth Elevation

Earthquake Activity

City Distance Mag. Time & Date
Minimum magnitude displayed is 2.5.

Coastal Water Temperatures

Place Temperature

Stations

Nearby Weather Stations

Station Location Temp. Windchill Dew Point Humidity Wind Precip. Elev Updated Type